Time;durP1;ratioP1;P1;durP2;ratioP2;P2;SDS_P1;SDS_P2;PMS_P1;PMS_P2;Temp;Humidity;BMP_temperature;BMP_pressure;BME280_temperature;BME280_humidity;BME280_pressure;Samples;Min_cycle;Max_cycle;Signal;HPM_P1;HPM_P2
2022/07/12 00:00:14;;;;;;;60.00;4.30;;;;;;;;;;5091307;28;20821;-65
2022/07/12 00:02:41;;;;;;;61.97;4.50;;;;;;;;;;5093198;28;20470;-65
2022/07/12 00:05:09;;;;;;;59.87;4.07;;;;;;;;;;5095644;28;20823;-65
2022/07/12 00:07:36;;;;;;;60.10;4.27;;;;;;;;;;5095234;28;20448;-65
2022/07/12 00:10:05;;;;;;;60.77;4.73;;;;;;;;;;5095453;28;20449;-65
2022/07/12 00:12:32;;;;;;;60.93;4.83;;;;;;;;;;5095199;28;20863;-65
2022/07/12 00:14:59;;;;;;;60.90;4.80;;;;;;;;;;5095434;28;20468;-65
2022/07/12 00:17:26;;;;;;;59.40;4.20;;;;;;;;;;5095163;28;20456;-65
2022/07/12 00:19:53;;;;;;;61.43;4.10;;;;;;;;;;5095396;28;20452;-65
2022/07/12 00:22:22;;;;;;;62.77;5.30;;;;;;;;;;5095176;28;20829;-65
2022/07/12 00:24:49;;;;;;;60.17;4.40;;;;;;;;;;5095115;28;20470;-65
2022/07/12 00:27:17;;;;;;;60.90;5.00;;;;;;;;;;5094809;28;20906;-65
2022/07/12 00:29:45;;;;;;;61.70;5.53;;;;;;;;;;5092773;28;20460;-65
2022/07/12 00:32:12;;;;;;;61.10;5.10;;;;;;;;;;5095080;28;20448;-65
2022/07/12 00:34:39;;;;;;;60.90;5.00;;;;;;;;;;5094911;28;20476;-65
2022/07/12 00:37:06;;;;;;;60.50;5.00;;;;;;;;;;5094927;28;20447;-65
2022/07/12 00:39:33;;;;;;;65.13;4.80;;;;;;;;;;5095198;28;20439;-65
2022/07/12 00:42:00;;;;;;;60.40;5.03;;;;;;;;;;5094650;28;20452;-65
2022/07/12 00:44:30;;;;;;;60.07;4.90;;;;;;;;;;5094801;28;20838;-65
2022/07/12 00:46:58;;;;;;;61.30;5.07;;;;;;;;;;5095079;28;20463;-65
2022/07/12 00:49:25;;;;;;;59.97;4.37;;;;;;;;;;5094344;28;20455;-65
2022/07/12 00:51:54;;;;;;;60.27;4.60;;;;;;;;;;5094929;28;20449;-65
2022/07/12 00:54:21;;;;;;;60.87;4.60;;;;;;;;;;5094264;28;20868;-65
2022/07/12 00:56:48;;;;;;;62.30;5.60;;;;;;;;;;5094415;28;20939;-65
2022/07/12 00:59:15;;;;;;;61.70;4.93;;;;;;;;;;5091824;28;20460;-65
2022/07/12 01:01:44;;;;;;;61.40;5.80;;;;;;;;;;5094542;28;20897;-65
2022/07/12 01:04:11;;;;;;;60.37;4.67;;;;;;;;;;5094347;28;20472;-65
2022/07/12 01:06:38;;;;;;;60.47;4.70;;;;;;;;;;5094313;28;20442;-65
2022/07/12 01:09:07;;;;;;;60.83;5.03;;;;;;;;;;5093964;28;20801;-65
2022/07/12 01:11:36;;;;;;;60.40;4.70;;;;;;;;;;5094621;28;20574;-65
2022/07/12 01:14:03;;;;;;;60.40;4.47;;;;;;;;;;5093361;28;21001;-65
2022/07/12 01:16:32;;;;;;;60.97;4.83;;;;;;;;;;5094230;28;20529;-65
2022/07/12 01:19:01;;;;;;;61.93;5.20;;;;;;;;;;5093850;28;20842;-65
2022/07/12 01:21:29;;;;;;;61.03;5.00;;;;;;;;;;5093869;28;20450;-65
2022/07/12 01:23:57;;;;;;;65.13;4.80;;;;;;;;;;5093834;28;20469;-65
2022/07/12 01:26:24;;;;;;;59.87;4.73;;;;;;;;;;5093946;28;20449;-65
2022/07/12 01:28:52;;;;;;;60.77;5.07;;;;;;;;;;5091088;28;20460;-65
2022/07/12 01:31:19;;;;;;;61.07;4.93;;;;;;;;;;5091391;28;20482;-65
2022/07/12 01:33:46;;;;;;;63.30;5.37;;;;;;;;;;5093638;28;20485;-65
2022/07/12 01:36:13;;;;;;;60.57;4.47;;;;;;;;;;5093861;28;20823;-65
2022/07/12 01:38:40;;;;;;;60.80;4.80;;;;;;;;;;5093389;28;20448;-65
2022/07/12 01:41:09;;;;;;;61.20;5.07;;;;;;;;;;5093712;28;20450;-65
2022/07/12 01:43:36;;;;;;;62.57;4.73;;;;;;;;;;5093370;28;20909;-65
2022/07/12 01:46:03;;;;;;;60.37;4.97;;;;;;;;;;5093697;28;20450;-65
2022/07/12 01:48:31;;;;;;;59.97;4.87;;;;;;;;;;5093417;28;20442;-65
2022/07/12 01:50:58;;;;;;;60.07;4.00;;;;;;;;;;5093968;28;20444;-65
2022/07/12 01:53:25;;;;;;;59.77;4.40;;;;;;;;;;5093351;28;20492;-65
2022/07/12 01:55:52;;;;;;;60.30;4.50;;;;;;;;;;5093203;28;20452;-65
2022/07/12 01:58:21;;;;;;;60.80;4.40;;;;;;;;;;5093050;28;20478;-65
2022/07/12 02:00:51;;;;;;;60.00;4.27;;;;;;;;;;5093326;28;20987;-65
2022/07/12 02:03:18;;;;;;;60.40;4.30;;;;;;;;;;5090586;28;20614;-65
2022/07/12 02:05:46;;;;;;;64.10;4.70;;;;;;;;;;5093290;28;20444;-65
2022/07/12 02:08:13;;;;;;;59.67;4.17;;;;;;;;;;5092953;28;20448;-65
2022/07/12 02:10:40;;;;;;;59.73;4.03;;;;;;;;;;5092974;28;20444;-65
2022/07/12 02:13:07;;;;;;;61.07;4.87;;;;;;;;;;5092955;28;20495;-65
2022/07/12 02:15:36;;;;;;;60.27;4.90;;;;;;;;;;5092956;28;20947;-65
2022/07/12 02:18:04;;;;;;;60.27;4.60;;;;;;;;;;5093095;28;20455;-65
2022/07/12 02:20:31;;;;;;;59.60;4.10;;;;;;;;;;5092981;28;20448;-65
2022/07/12 02:22:58;;;;;;;60.50;4.50;;;;;;;;;;5092663;28;20442;-65
2022/07/12 02:25:25;;;;;;;60.10;3.97;;;;;;;;;;5092309;28;21005;-65
2022/07/12 02:27:52;;;;;;;60.20;4.30;;;;;;;;;;5092408;28;20931;-65
2022/07/12 02:30:19;;;;;;;60.30;4.17;;;;;;;;;;5092722;28;20446;-65
2022/07/12 02:32:48;;;;;;;59.77;4.20;;;;;;;;;;5092392;28;20471;-66
2022/07/12 02:35:15;;;;;;;60.07;4.20;;;;;;;;;;5092451;28;20479;-65
2022/07/12 02:37:42;;;;;;;61.40;4.73;;;;;;;;;;5090566;28;20454;-65
2022/07/12 02:42:54;;;;;;;62.07;4.70;;;;;;;;;;5092553;28;21000;-65
2022/07/12 02:45:22;;;;;;;59.70;4.27;;;;;;;;;;5092141;28;20462;-65
2022/07/12 02:47:50;;;;;;;65.00;5.00;;;;;;;;;;5091962;28;20449;-65
2022/07/12 02:50:17;;;;;;;61.10;4.83;;;;;;;;;;5092271;28;20447;-65
2022/07/12 02:52:44;;;;;;;60.47;4.83;;;;;;;;;;5092465;28;20443;-65
2022/07/12 02:55:11;;;;;;;60.70;4.80;;;;;;;;;;5092235;28;21017;-65
2022/07/12 02:57:39;;;;;;;60.80;4.77;;;;;;;;;;5092106;28;20458;-65
2022/07/12 03:00:07;;;;;;;60.50;4.87;;;;;;;;;;5092240;28;20953;-65
2022/07/12 03:02:34;;;;;;;60.53;5.00;;;;;;;;;;5091951;28;20456;-66
2022/07/12 03:05:03;;;;;;;60.43;4.50;;;;;;;;;;5092275;28;20831;-65
2022/07/12 03:07:30;;;;;;;60.67;4.50;;;;;;;;;;5091375;28;20446;-65
2022/07/12 03:09:57;;;;;;;60.57;4.67;;;;;;;;;;5091647;28;20478;-65
2022/07/12 03:12:25;;;;;;;60.67;4.47;;;;;;;;;;5092218;28;20451;-65
2022/07/12 03:14:52;;;;;;;62.80;4.50;;;;;;;;;;5091896;28;20478;-65
2022/07/12 03:17:19;;;;;;;60.93;4.43;;;;;;;;;;5091773;28;20577;-65
2022/07/12 03:19:46;;;;;;;59.80;3.93;;;;;;;;;;5092326;28;20452;-65
2022/07/12 03:22:14;;;;;;;65.70;5.00;;;;;;;;;;5092058;28;20958;-65
2022/07/12 03:24:42;;;;;;;60.80;4.30;;;;;;;;;;5091863;28;20462;-65
2022/07/12 03:27:09;;;;;;;61.10;4.40;;;;;;;;;;5091933;28;20438;-65
2022/07/12 03:29:36;;;;;;;60.90;5.30;;;;;;;;;;5092028;28;20791;-65
2022/07/12 03:32:04;;;;;;;60.67;4.67;;;;;;;;;;5091946;28;20549;-65
2022/07/12 03:34:31;;;;;;;59.67;4.17;;;;;;;;;;5091622;28;20483;-65
2022/07/12 03:36:58;;;;;;;63.37;4.40;;;;;;;;;;5091688;28;20653;-65
2022/07/12 03:39:27;;;;;;;59.67;4.00;;;;;;;;;;5091761;28;20468;-65
2022/07/12 03:41:54;;;;;;;60.17;4.40;;;;;;;;;;5091851;28;20448;-66
2022/07/12 03:44:21;;;;;;;59.70;4.03;;;;;;;;;;5091560;28;20553;-65
2022/07/12 03:46:48;;;;;;;60.33;4.43;;;;;;;;;;5091907;28;20449;-65
2022/07/12 03:49:15;;;;;;;60.30;4.20;;;;;;;;;;5091599;28;20442;-65
2022/07/12 03:51:42;;;;;;;60.43;4.47;;;;;;;;;;5092010;28;20449;-65
2022/07/12 03:54:10;;;;;;;60.80;4.70;;;;;;;;;;5091542;28;20811;-65
2022/07/12 03:59:23;;;;;;;60.40;4.50;;;;;;;;;;5091745;28;20426;-65
2022/07/12 04:01:50;;;;;;;63.13;5.57;;;;;;;;;;5091779;28;20446;-65
2022/07/12 04:04:17;;;;;;;60.30;4.60;;;;;;;;;;5091588;28;20833;-65
2022/07/12 04:06:45;;;;;;;60.03;4.30;;;;;;;;;;5091721;28;20450;-65
2022/07/12 04:09:13;;;;;;;60.00;4.20;;;;;;;;;;5091138;28;20456;-65
2022/07/12 04:11:41;;;;;;;62.77;4.93;;;;;;;;;;5091558;28;20485;-65
2022/07/12 04:14:09;;;;;;;60.70;4.50;;;;;;;;;;5091519;28;20492;-66
2022/07/12 04:16:36;;;;;;;62.47;4.40;;;;;;;;;;5091721;28;20446;-66
2022/07/12 04:19:04;;;;;;;60.10;4.37;;;;;;;;;;5091235;28;20450;-66
2022/07/12 04:21:31;;;;;;;60.83;4.57;;;;;;;;;;5091539;28;20446;-66
2022/07/12 04:23:59;;;;;;;67.23;5.27;;;;;;;;;;5091319;28;20602;-66
2022/07/12 04:26:26;;;;;;;60.10;4.00;;;;;;;;;;5091628;28;20471;-66
2022/07/12 04:28:54;;;;;;;60.20;4.83;;;;;;;;;;5091314;28;20446;-66
2022/07/12 04:31:21;;;;;;;60.00;4.20;;;;;;;;;;5091476;28;20446;-66
2022/07/12 04:33:48;;;;;;;60.80;4.70;;;;;;;;;;5091061;28;20492;-66
2022/07/12 04:36:16;;;;;;;60.20;4.80;;;;;;;;;;5091191;28;20451;-66
2022/07/12 04:38:43;;;;;;;60.87;4.77;;;;;;;;;;5091352;28;20447;-66
2022/07/12 04:41:10;;;;;;;60.20;4.50;;;;;;;;;;5091493;28;20449;-66
2022/07/12 04:43:37;;;;;;;60.30;4.40;;;;;;;;;;5091544;28;20466;-66
2022/07/12 04:46:09;;;;;;;60.70;4.27;;;;;;;;;;5091347;28;20447;-66
2022/07/12 04:48:36;;;;;;;60.07;4.43;;;;;;;;;;5091097;28;20468;-66
2022/07/12 04:51:04;;;;;;;60.00;4.30;;;;;;;;;;5094648;28;20451;-66
2022/07/12 04:53:31;;;;;;;60.23;4.53;;;;;;;;;;5094985;28;20462;-66
2022/07/12 04:55:58;;;;;;;60.27;4.63;;;;;;;;;;5094877;28;20446;-66
2022/07/12 04:58:25;;;;;;;60.50;5.33;;;;;;;;;;5094456;28;20989;-66
2022/07/12 05:00:53;;;;;;;61.77;5.27;;;;;;;;;;5094829;28;20934;-64
2022/07/12 05:03:26;;;;;;;60.07;3.90;;;;;;;;;;5094818;28;21043;-66
2022/07/12 05:05:54;;;;;;;60.00;4.20;;;;;;;;;;5094901;28;20440;-66
2022/07/12 05:08:21;;;;;;;59.93;4.33;;;;;;;;;;5094283;28;20451;-66
2022/07/12 05:10:48;;;;;;;60.07;4.40;;;;;;;;;;5094666;28;20441;-66
2022/07/12 05:13:15;;;;;;;60.20;4.30;;;;;;;;;;5094427;28;20450;-66
2022/07/12 05:15:42;;;;;;;60.27;4.43;;;;;;;;;;5094427;28;20485;-66
2022/07/12 05:18:09;;;;;;;60.77;4.60;;;;;;;;;;5093978;28;20444;-66
2022/07/12 05:20:38;;;;;;;60.23;4.47;;;;;;;;;;5094880;28;20451;-66
2022/07/12 05:23:05;;;;;;;60.10;4.33;;;;;;;;;;5094180;28;20468;-64
2022/07/12 05:25:32;;;;;;;59.50;4.00;;;;;;;;;;5094265;28;20938;-66
2022/07/12 05:27:59;;;;;;;59.80;4.00;;;;;;;;;;5094029;28;20452;-66
2022/07/12 05:30:26;;;;;;;60.60;3.90;;;;;;;;;;5094151;28;20443;-66
2022/07/12 05:32:54;;;;;;;60.77;4.50;;;;;;;;;;5094128;28;20527;-66
2022/07/12 05:35:21;;;;;;;59.27;3.60;;;;;;;;;;5094069;28;20494;-64
2022/07/12 05:37:49;;;;;;;59.60;3.70;;;;;;;;;;5093716;28;20450;-66
2022/07/12 05:40:16;;;;;;;59.87;4.13;;;;;;;;;;5094006;28;20444;-66
2022/07/12 05:42:43;;;;;;;59.97;3.97;;;;;;;;;;5093829;28;20632;-65
2022/07/12 05:45:11;;;;;;;59.60;3.97;;;;;;;;;;5093707;28;20466;-65
2022/07/12 05:47:38;;;;;;;59.83;3.90;;;;;;;;;;5093657;28;20815;-65
2022/07/12 05:50:06;;;;;;;60.10;4.50;;;;;;;;;;5093685;28;20444;-65
2022/07/12 05:55:19;;;;;;;60.10;3.90;;;;;;;;;;5093652;28;20479;-65
2022/07/12 05:57:46;;;;;;;60.13;3.97;;;;;;;;;;5093332;28;20882;-65
2022/07/12 06:00:15;;;;;;;62.00;4.40;;;;;;;;;;5093048;28;20548;-65
2022/07/12 06:02:42;;;;;;;59.17;3.77;;;;;;;;;;5093218;28;20453;-65
2022/07/12 06:05:09;;;;;;;59.77;3.93;;;;;;;;;;5093633;28;20750;-65
2022/07/12 06:07:36;;;;;;;60.37;4.23;;;;;;;;;;5093153;28;20830;-65
2022/07/12 06:10:04;;;;;;;59.90;4.00;;;;;;;;;;5093317;28;20449;-65
2022/07/12 06:12:32;;;;;;;60.17;4.50;;;;;;;;;;5093443;28;20459;-65
2022/07/12 06:14:59;;;;;;;61.97;4.83;;;;;;;;;;5093322;28;20495;-65
2022/07/12 06:17:26;;;;;;;60.10;4.20;;;;;;;;;;5092912;28;20962;-65
2022/07/12 06:19:53;;;;;;;59.60;3.83;;;;;;;;;;5093271;28;20442;-65
2022/07/12 06:22:21;;;;;;;59.47;3.90;;;;;;;;;;5093126;28;20457;-65
2022/07/12 06:24:48;;;;;;;59.93;4.23;;;;;;;;;;5093047;28;20837;-65
2022/07/12 06:27:15;;;;;;;60.30;3.77;;;;;;;;;;5093054;28;20443;-65
2022/07/12 06:29:47;;;;;;;62.60;4.27;;;;;;;;;;5093233;28;20445;-65
2022/07/12 06:32:14;;;;;;;60.10;4.13;;;;;;;;;;5092966;28;20450;-65
2022/07/12 06:34:42;;;;;;;59.97;4.30;;;;;;;;;;5092658;28;21021;-65
2022/07/12 06:37:09;;;;;;;59.67;3.60;;;;;;;;;;5092714;28;20443;-65
2022/07/12 06:39:36;;;;;;;59.20;3.50;;;;;;;;;;5093189;28;20452;-65
2022/07/12 06:42:04;;;;;;;61.23;4.43;;;;;;;;;;5093152;28;20457;-65
2022/07/12 06:44:31;;;;;;;59.90;3.30;;;;;;;;;;5092776;28;20465;-65
2022/07/12 06:47:00;;;;;;;59.40;3.70;;;;;;;;;;5092580;28;20504;-65
2022/07/12 06:49:27;;;;;;;58.97;3.10;;;;;;;;;;5092418;28;20448;-65
2022/07/12 06:51:54;;;;;;;60.57;3.70;;;;;;;;;;5092569;28;20446;-65
2022/07/12 06:54:21;;;;;;;58.47;3.00;;;;;;;;;;5092215;28;20470;-65
2022/07/12 06:56:48;;;;;;;58.67;3.40;;;;;;;;;;5092642;28;20449;-65
2022/07/12 06:59:16;;;;;;;58.70;3.20;;;;;;;;;;5092237;28;20461;-65
2022/07/12 07:01:43;;;;;;;59.50;3.30;;;;;;;;;;5092396;28;20442;-65
2022/07/12 07:04:12;;;;;;;58.60;3.20;;;;;;;;;;5092201;28;20470;-65
2022/07/12 07:06:39;;;;;;;58.77;3.27;;;;;;;;;;5092570;28;20443;-65
2022/07/12 07:09:07;;;;;;;58.63;3.20;;;;;;;;;;5092212;28;20446;-65
2022/07/12 07:11:34;;;;;;;59.10;3.23;;;;;;;;;;5091768;28;20458;-65
2022/07/12 07:14:01;;;;;;;59.00;3.10;;;;;;;;;;5092044;28;20868;-65
2022/07/12 07:16:29;;;;;;;58.47;2.80;;;;;;;;;;5092148;28;20482;-65
2022/07/12 07:18:56;;;;;;;58.33;2.60;;;;;;;;;;5091766;28;20450;-65
2022/07/12 07:21:24;;;;;;;58.40;2.93;;;;;;;;;;5092103;28;20446;-65
2022/07/12 07:23:51;;;;;;;58.90;2.53;;;;;;;;;;5092131;28;20466;-65
2022/07/12 07:26:19;;;;;;;58.97;3.13;;;;;;;;;;5090184;28;20455;-65
2022/07/12 07:31:30;;;;;;;59.17;3.10;;;;;;;;;;5091361;28;21100;-65
2022/07/12 07:33:58;;;;;;;58.53;2.80;;;;;;;;;;5091238;28;20484;-65
2022/07/12 07:36:26;;;;;;;58.90;2.80;;;;;;;;;;5091416;28;20488;-65
2022/07/12 07:38:53;;;;;;;58.40;3.20;;;;;;;;;;5091447;28;20534;-65
2022/07/12 07:41:20;;;;;;;57.70;2.73;;;;;;;;;;5091940;28;20646;-65
2022/07/12 07:43:47;;;;;;;59.63;2.80;;;;;;;;;;5091247;28;20478;-65
2022/07/12 07:46:14;;;;;;;59.37;2.77;;;;;;;;;;5091809;28;20439;-65
2022/07/12 07:48:42;;;;;;;59.30;2.83;;;;;;;;;;5091629;28;20453;-65
2022/07/12 07:51:09;;;;;;;58.50;2.70;;;;;;;;;;5091526;28;20468;-65
2022/07/12 07:53:37;;;;;;;58.30;2.60;;;;;;;;;;5091405;28;20468;-65
2022/07/12 07:56:04;;;;;;;57.97;2.50;;;;;;;;;;5091445;28;21102;-65
2022/07/12 07:58:32;;;;;;;58.07;2.40;;;;;;;;;;5090721;28;20451;-65
2022/07/12 08:00:59;;;;;;;58.60;2.50;;;;;;;;;;5089511;28;20450;-65
2022/07/12 08:03:26;;;;;;;58.80;2.43;;;;;;;;;;5091748;28;20466;-65
2022/07/12 08:05:57;;;;;;;58.10;2.40;;;;;;;;;;5091761;28;20938;-65
2022/07/12 08:08:24;;;;;;;57.97;2.40;;;;;;;;;;5091242;28;20856;-65
2022/07/12 08:10:52;;;;;;;57.97;2.43;;;;;;;;;;5091146;28;20962;-65
2022/07/12 08:13:20;;;;;;;57.87;2.40;;;;;;;;;;5091399;28;20447;-65
2022/07/12 08:15:47;;;;;;;58.07;2.30;;;;;;;;;;5091393;28;20486;-65
2022/07/12 08:18:14;;;;;;;57.93;2.40;;;;;;;;;;5091041;28;20458;-65
2022/07/12 08:20:41;;;;;;;58.10;2.40;;;;;;;;;;5091248;28;20453;-66
2022/07/12 08:23:08;;;;;;;58.00;2.63;;;;;;;;;;5091341;28;20818;-65
2022/07/12 08:25:36;;;;;;;58.70;2.60;;;;;;;;;;5094093;28;20444;-65
2022/07/12 08:28:04;;;;;;;58.17;2.53;;;;;;;;;;5095068;28;20442;-65
2022/07/12 08:30:31;;;;;;;58.00;2.60;;;;;;;;;;5095069;28;20452;-65
2022/07/12 08:32:59;;;;;;;58.10;2.50;;;;;;;;;;5092288;28;20454;-65
2022/07/12 08:35:26;;;;;;;57.87;2.30;;;;;;;;;;5095058;28;20539;-65
2022/07/12 08:37:53;;;;;;;58.20;2.30;;;;;;;;;;5094643;28;20442;-65
2022/07/12 08:40:20;;;;;;;58.27;2.33;;;;;;;;;;5094775;28;20450;-65
2022/07/12 08:42:48;;;;;;;58.07;2.30;;;;;;;;;;5094793;28;20447;-65
2022/07/12 08:45:16;;;;;;;58.13;2.30;;;;;;;;;;5094921;28;20454;-65
2022/07/12 08:47:44;;;;;;;58.00;2.10;;;;;;;;;;5094950;28;20814;-66
2022/07/12 08:50:11;;;;;;;59.60;2.20;;;;;;;;;;5094822;28;20478;-65
2022/07/12 08:52:41;;;;;;;58.07;2.37;;;;;;;;;;5094481;28;20452;-65
2022/07/12 08:55:17;;;;;;;57.77;2.50;;;;;;;;;;5094867;28;20478;-66
2022/07/12 08:57:45;;;;;;;57.87;2.50;;;;;;;;;;5094850;28;20500;-66
2022/07/12 09:00:14;;;;;;;58.07;2.40;;;;;;;;;;5094521;28;20948;-65
2022/07/12 09:02:52;;;;;;;58.17;2.50;;;;;;;;;;5094330;28;20835;-65
2022/07/12 09:05:21;;;;;;;58.23;2.50;;;;;;;;;;5092680;28;20539;-65
2022/07/12 09:07:48;;;;;;;57.77;2.40;;;;;;;;;;5094131;28;20446;-66
2022/07/12 09:10:15;;;;;;;59.80;2.60;;;;;;;;;;5094759;28;20439;-66
2022/07/12 09:12:43;;;;;;;58.50;2.73;;;;;;;;;;5094366;28;20445;-66
2022/07/12 09:15:19;;;;;;;58.40;2.60;;;;;;;;;;5094147;28;20472;-65
2022/07/12 09:18:01;;;;;;;62.70;2.20;;;;;;;;;;5094400;28;20938;-66
2022/07/12 09:20:30;;;;;;;57.40;2.30;;;;;;;;;;5092025;28;20466;-66
2022/07/12 09:22:58;;;;;;;58.37;2.60;;;;;;;;;;5094164;28;20438;-66
2022/07/12 09:25:25;;;;;;;58.10;2.37;;;;;;;;;;5094051;28;20461;-66
2022/07/12 09:27:53;;;;;;;57.83;2.30;;;;;;;;;;5093722;28;20442;-66
2022/07/12 09:30:20;;;;;;;58.17;2.00;;;;;;;;;;5093931;28;20480;-65
2022/07/12 09:38:22;;;;;;;58.00;2.10;;;;;;;;;;5093565;28;20421;-66
2022/07/12 09:40:50;;;;;;;57.97;2.17;;;;;;;;;;5093508;28;21026;-66
2022/07/12 09:43:18;;;;;;;57.77;1.97;;;;;;;;;;5093817;28;20529;-66
2022/07/12 09:45:48;;;;;;;57.93;2.13;;;;;;;;;;5094087;28;20442;-66
2022/07/12 09:48:16;;;;;;;57.67;1.90;;;;;;;;;;5093407;28;20447;-66
2022/07/12 09:50:47;;;;;;;58.27;2.23;;;;;;;;;;5093560;28;20446;-66
2022/07/12 09:53:16;;;;;;;57.77;2.03;;;;;;;;;;5093425;28;20451;-65
2022/07/12 09:55:44;;;;;;;58.00;2.33;;;;;;;;;;5093489;28;20573;-65
2022/07/12 09:58:12;;;;;;;57.87;1.93;;;;;;;;;;5093306;28;20554;-65
2022/07/12 10:00:40;;;;;;;57.67;2.10;;;;;;;;;;5093371;28;20486;-66
2022/07/12 10:03:09;;;;;;;57.43;2.10;;;;;;;;;;5093721;28;20818;-66
2022/07/12 10:05:37;;;;;;;57.60;2.10;;;;;;;;;;5093248;28;20497;-66
2022/07/12 10:08:05;;;;;;;57.97;2.10;;;;;;;;;;5091173;28;20446;-66
2022/07/12 10:10:33;;;;;;;57.40;2.00;;;;;;;;;;5093127;28;20509;-66
2022/07/12 10:13:01;;;;;;;58.77;2.10;;;;;;;;;;5093237;28;20458;-66
2022/07/12 10:15:29;;;;;;;57.67;2.03;;;;;;;;;;5092961;28;20529;-66
2022/07/12 10:17:58;;;;;;;57.77;2.00;;;;;;;;;;5092680;28;20454;-66
2022/07/12 10:20:27;;;;;;;68.50;2.17;;;;;;;;;;5093069;28;20450;-66
2022/07/12 10:22:54;;;;;;;57.57;1.80;;;;;;;;;;5093140;28;20515;-66
2022/07/12 10:25:33;;;;;;;57.63;1.83;;;;;;;;;;5092917;28;20557;-66
2022/07/12 10:28:00;;;;;;;58.00;1.80;;;;;;;;;;5092595;28;20525;-67
2022/07/12 10:30:27;;;;;;;57.57;1.70;;;;;;;;;;5092750;28;20541;-66
2022/07/12 10:32:57;;;;;;;57.17;1.80;;;;;;;;;;5092343;28;20537;-66
2022/07/12 10:35:25;;;;;;;58.87;2.03;;;;;;;;;;5092800;28;20893;-67
2022/07/12 10:38:11;;;;;;;56.87;1.77;;;;;;;;;;5091658;28;21038;-65
2022/07/12 10:40:40;;;;;;;57.07;1.73;;;;;;;;;;5091762;28;21028;-65
2022/07/12 10:43:15;;;;;;;56.90;1.70;;;;;;;;;;5092788;28;20427;-66
2022/07/12 10:45:43;;;;;;;56.77;1.60;;;;;;;;;;5093137;28;20453;-66
2022/07/12 10:48:20;;;;;;;58.07;1.80;;;;;;;;;;5091593;28;20529;-66
2022/07/12 10:50:57;;;;;;;56.40;1.50;;;;;;;;;;5092709;28;20529;-66
2022/07/12 10:53:34;;;;;;;56.80;1.70;;;;;;;;;;5092503;28;20498;-66
2022/07/12 10:56:17;;;;;;;56.17;1.70;;;;;;;;;;5092564;28;20900;-65
2022/07/12 10:58:46;;;;;;;56.60;1.50;;;;;;;;;;5092516;28;20500;-65
2022/07/12 11:01:14;;;;;;;56.80;1.80;;;;;;;;;;5092950;28;20446;-65
2022/07/12 11:03:42;;;;;;;56.63;1.60;;;;;;;;;;5092264;28;20573;-65
2022/07/12 11:06:10;;;;;;;56.63;1.60;;;;;;;;;;5092325;28;20530;-65
2022/07/12 11:08:50;;;;;;;57.03;1.70;;;;;;;;;;5092289;28;20477;-65
2022/07/12 11:11:19;;;;;;;56.93;1.63;;;;;;;;;;5092476;28;20624;-65
2022/07/12 11:13:46;;;;;;;56.67;1.67;;;;;;;;;;5092257;28;20465;-65
2022/07/12 11:16:13;;;;;;;56.80;1.70;;;;;;;;;;5091790;28;20478;-65
2022/07/12 11:18:40;;;;;;;57.13;1.73;;;;;;;;;;5091856;28;20442;-65
2022/07/12 11:21:08;;;;;;;56.57;1.60;;;;;;;;;;5092378;28;20449;-65
2022/07/12 11:23:35;;;;;;;56.70;1.80;;;;;;;;;;5091902;28;20471;-65
2022/07/12 11:26:03;;;;;;;56.77;1.97;;;;;;;;;;5092220;28;20910;-65
2022/07/12 11:28:32;;;;;;;56.97;1.93;;;;;;;;;;5091765;28;20484;-65
2022/07/12 11:31:03;;;;;;;56.90;1.60;;;;;;;;;;5092006;28;20525;-65
2022/07/12 11:33:33;;;;;;;56.97;1.70;;;;;;;;;;5091706;28;20480;-65
2022/07/12 11:36:00;;;;;;;56.90;2.20;;;;;;;;;;5092069;28;20482;-65
2022/07/12 11:38:28;;;;;;;56.80;1.70;;;;;;;;;;5091676;28;20453;-65
2022/07/12 11:40:56;;;;;;;56.90;1.80;;;;;;;;;;5091946;28;20533;-66
2022/07/12 11:43:23;;;;;;;56.37;1.60;;;;;;;;;;5091641;28;20485;-66
2022/07/12 11:45:52;;;;;;;56.67;1.70;;;;;;;;;;5092045;28;20533;-66
2022/07/12 11:48:19;;;;;;;56.70;1.90;;;;;;;;;;5091581;28;20930;-66
2022/07/12 11:50:47;;;;;;;57.43;2.60;;;;;;;;;;5091882;28;20549;-66
2022/07/12 11:53:18;;;;;;;56.47;1.70;;;;;;;;;;5091569;28;20445;-66
2022/07/12 11:55:45;;;;;;;56.57;1.73;;;;;;;;;;5091664;28;20447;-66
2022/07/12 11:58:13;;;;;;;56.27;1.60;;;;;;;;;;5092181;28;20450;-66
2022/07/12 12:00:40;;;;;;;56.40;1.70;;;;;;;;;;5095882;28;20442;-66
2022/07/12 12:03:09;;;;;;;56.57;1.60;;;;;;;;;;5095841;28;20500;-66
2022/07/12 12:05:36;;;;;;;56.50;1.93;;;;;;;;;;5096123;28;20537;-66
2022/07/12 12:08:04;;;;;;;56.60;1.67;;;;;;;;;;5095316;28;20493;-66
2022/07/12 12:10:31;;;;;;;57.00;1.90;;;;;;;;;;5095655;28;20442;-66
2022/07/12 12:13:00;;;;;;;56.70;1.93;;;;;;;;;;5095797;28;20456;-66
2022/07/12 12:15:27;;;;;;;56.27;1.43;;;;;;;;;;5095677;28;20453;-66
2022/07/12 12:17:56;;;;;;;56.77;2.13;;;;;;;;;;5095470;28;20537;-66
2022/07/12 12:20:25;;;;;;;56.40;1.70;;;;;;;;;;5095592;28;20541;-66
2022/07/12 12:22:53;;;;;;;56.47;1.50;;;;;;;;;;5095332;28;20542;-66
2022/07/12 12:25:21;;;;;;;57.57;1.83;;;;;;;;;;5095374;28;20466;-66
2022/07/12 12:27:49;;;;;;;56.57;1.77;;;;;;;;;;5095274;28;20492;-66
2022/07/12 12:30:16;;;;;;;56.70;1.87;;;;;;;;;;5095857;28;20448;-66
2022/07/12 12:32:47;;;;;;;56.70;1.60;;;;;;;;;;5095371;28;20540;-66
2022/07/12 12:35:15;;;;;;;56.50;1.80;;;;;;;;;;5095022;28;20478;-66
2022/07/12 12:37:49;;;;;;;56.47;1.70;;;;;;;;;;5095298;28;20448;-66
2022/07/12 12:40:19;;;;;;;56.63;1.80;;;;;;;;;;5095405;28;20473;-66
2022/07/12 12:42:46;;;;;;;56.67;1.90;;;;;;;;;;5095540;28;20861;-66
2022/07/12 12:45:19;;;;;;;56.60;1.80;;;;;;;;;;5095126;28;20524;-66
2022/07/12 12:47:55;;;;;;;56.60;1.90;;;;;;;;;;5094810;28;20511;-66
2022/07/12 12:50:44;;;;;;;59.47;1.70;;;;;;;;;;5095203;28;20454;-66
2022/07/12 12:53:14;;;;;;;56.50;1.70;;;;;;;;;;5094924;28;20550;-65
2022/07/12 12:55:41;;;;;;;56.70;2.10;;;;;;;;;;5094975;28;20861;-66
2022/07/12 12:58:08;;;;;;;57.37;1.90;;;;;;;;;;5094673;28;20882;-65
2022/07/12 13:00:37;;;;;;;56.47;1.83;;;;;;;;;;5094733;28;20470;-65
2022/07/12 13:03:04;;;;;;;57.27;1.50;;;;;;;;;;5094569;28;20442;-65
2022/07/12 13:05:31;;;;;;;56.57;1.70;;;;;;;;;;5094909;28;20443;-65
2022/07/12 13:07:59;;;;;;;56.37;1.93;;;;;;;;;;5094408;28;20577;-65
2022/07/12 13:10:28;;;;;;;56.80;1.97;;;;;;;;;;5093957;28;20926;-65
2022/07/12 13:12:55;;;;;;;56.60;1.70;;;;;;;;;;5094428;28;20450;-65
2022/07/12 13:15:22;;;;;;;56.60;1.90;;;;;;;;;;5094465;28;20458;-65
2022/07/12 13:17:49;;;;;;;56.53;1.77;;;;;;;;;;5094423;28;20808;-65
2022/07/12 13:20:17;;;;;;;61.00;2.13;;;;;;;;;;5094786;28;20814;-65
2022/07/12 13:22:44;;;;;;;56.47;1.70;;;;;;;;;;5094624;28;20446;-65
2022/07/12 13:25:11;;;;;;;56.77;2.00;;;;;;;;;;5094576;28;20481;-65
2022/07/12 13:27:40;;;;;;;56.80;2.00;;;;;;;;;;5093979;28;20478;-65
2022/07/12 13:30:09;;;;;;;56.60;2.00;;;;;;;;;;5094434;28;20443;-65
2022/07/12 13:32:36;;;;;;;56.43;1.67;;;;;;;;;;5094352;28;20508;-65
2022/07/12 13:35:04;;;;;;;56.57;1.63;;;;;;;;;;5093991;28;20481;-65
2022/07/12 13:37:31;;;;;;;56.27;1.60;;;;;;;;;;5093843;28;20439;-65
2022/07/12 13:40:17;;;;;;;56.17;1.80;;;;;;;;;;5094011;28;20453;-65
2022/07/12 13:42:47;;;;;;;56.40;1.80;;;;;;;;;;5094254;28;20468;-65
2022/07/12 13:45:15;;;;;;;57.73;1.77;;;;;;;;;;5093980;28;20519;-65
2022/07/12 13:47:42;;;;;;;56.20;1.50;;;;;;;;;;5093729;28;20500;-65
2022/07/12 13:50:10;;;;;;;56.30;1.50;;;;;;;;;;5093847;28;20945;-65
2022/07/12 13:52:38;;;;;;;56.23;1.53;;;;;;;;;;5093641;28;20442;-65
2022/07/12 13:55:06;;;;;;;58.10;2.00;;;;;;;;;;5093631;28;20474;-65
2022/07/12 13:57:33;;;;;;;56.50;1.50;;;;;;;;;;5093674;28;20879;-65
2022/07/12 14:00:02;;;;;;;56.20;1.70;;;;;;;;;;5093592;28;20533;-65
2022/07/12 14:02:29;;;;;;;56.27;1.70;;;;;;;;;;5093643;28;20489;-65
2022/07/12 14:04:56;;;;;;;56.07;1.60;;;;;;;;;;5093749;28;20834;-65
2022/07/12 14:07:23;;;;;;;56.50;1.60;;;;;;;;;;5092897;28;20474;-65
2022/07/12 14:09:50;;;;;;;56.40;1.90;;;;;;;;;;5093517;28;20447;-65
2022/07/12 14:12:18;;;;;;;56.67;1.80;;;;;;;;;;5093535;28;20442;-65
2022/07/12 14:17:32;;;;;;;56.40;1.90;;;;;;;;;;5093166;28;20917;-65
2022/07/12 14:19:59;;;;;;;56.37;1.80;;;;;;;;;;5093310;28;20493;-65
2022/07/12 14:22:27;;;;;;;56.17;1.40;;;;;;;;;;5093186;28;20449;-65
2022/07/12 14:24:54;;;;;;;56.17;1.50;;;;;;;;;;5093156;28;20502;-65
2022/07/12 14:27:21;;;;;;;56.90;2.30;;;;;;;;;;5093148;28;20853;-65
2022/07/12 14:29:49;;;;;;;56.90;2.33;;;;;;;;;;5093114;28;20552;-65
2022/07/12 14:32:16;;;;;;;56.67;1.60;;;;;;;;;;5092822;28;20442;-65
2022/07/12 14:34:44;;;;;;;56.63;1.80;;;;;;;;;;5092743;28;20478;-65
2022/07/12 14:37:11;;;;;;;56.40;1.90;;;;;;;;;;5092862;28;20799;-65
2022/07/12 14:39:39;;;;;;;56.57;1.90;;;;;;;;;;5092916;28;20447;-65
2022/07/12 14:42:06;;;;;;;56.37;1.70;;;;;;;;;;5092909;28;20453;-65
2022/07/12 14:44:33;;;;;;;56.57;1.97;;;;;;;;;;5092991;28;20553;-65
2022/07/12 14:47:00;;;;;;;56.50;1.80;;;;;;;;;;5092712;28;20994;-65
2022/07/12 14:49:28;;;;;;;56.97;1.70;;;;;;;;;;5092832;28;20454;-65
2022/07/12 14:51:58;;;;;;;56.13;1.80;;;;;;;;;;5092732;28;20450;-65
2022/07/12 14:54:25;;;;;;;56.60;2.00;;;;;;;;;;5092515;28;20462;-65